Time;durP1;ratioP1;P1;durP2;ratioP2;P2;SDS_P1;SDS_P2;PMS_P1;PMS_P2;Temp;Humidity;BMP_temperature;BMP_pressure;BME280_temperature;BME280_humidity;BME280_pressure;Samples;Min_cycle;Max_cycle;Signal;HPM_P1;HPM_P2
2021/05/14 00:01:48;;;;;;;33.63;25.52;;;10.10;99.90;;;;;;5071730;28;20016;-65
2021/05/14 00:04:14;;;;;;;32.47;24.30;;;9.90;99.90;;;;;;5071294;28;20033;-64
2021/05/14 00:06:39;;;;;;;29.92;22.52;;;9.80;99.90;;;;;;5070396;28;20030;-64
2021/05/14 00:09:05;;;;;;;32.58;24.98;;;9.70;99.90;;;;;;5071589;28;20312;-65
2021/05/14 00:11:31;;;;;;;35.90;26.83;;;9.70;99.90;;;;;;5071429;28;20480;-64
2021/05/14 00:13:59;;;;;;;34.50;26.05;;;9.70;99.90;;;;;;5071484;28;20582;-64
2021/05/14 00:16:25;;;;;;;31.00;23.67;;;9.70;99.90;;;;;;5070207;28;20437;-64
2021/05/14 00:18:50;;;;;;;33.70;25.20;;;9.60;99.90;;;;;;5071444;28;20020;-64
2021/05/14 00:21:16;;;;;;;31.15;24.10;;;9.60;99.90;;;;;;5070851;28;20035;-66
2021/05/14 00:23:42;;;;;;;29.85;24.00;;;9.70;99.90;;;;;;5069825;28;20380;-65
2021/05/14 00:26:07;;;;;;;32.33;24.45;;;9.60;99.90;;;;;;5071111;28;20459;-65
2021/05/14 00:28:33;;;;;;;30.33;23.98;;;9.50;99.90;;;;;;5071202;28;20033;-65
2021/05/14 00:30:58;;;;;;;31.83;24.40;;;9.40;99.90;;;;;;5071260;28;20090;-65
2021/05/14 00:33:24;;;;;;;32.00;25.33;;;9.40;99.90;;;;;;5069475;28;20034;-65
2021/05/14 00:35:50;;;;;;;31.38;23.63;;;9.50;99.90;;;;;;5069671;28;20086;-65
2021/05/14 00:38:16;;;;;;;28.95;22.65;;;9.50;99.90;;;;;;5071729;28;20517;-65
2021/05/14 00:40:41;;;;;;;28.77;23.73;;;9.50;99.90;;;;;;5071011;28;20137;-65
2021/05/14 00:43:07;;;;;;;34.58;26.58;;;9.50;99.90;;;;;;5070958;28;20355;-65
2021/05/14 00:45:32;;;;;;;40.35;28.02;;;9.60;99.90;;;;;;5071054;28;20028;-65
2021/05/14 00:47:58;;;;;;;35.00;26.33;;;9.70;99.90;;;;;;5069993;28;20555;-65
2021/05/14 00:50:24;;;;;;;35.75;26.95;;;9.60;99.90;;;;;;5070946;28;20508;-65
2021/05/14 00:52:49;;;;;;;43.00;29.15;;;9.60;99.90;;;;;;5069547;28;20400;-64
2021/05/14 00:55:15;;;;;;;36.25;27.60;;;9.60;99.90;;;;;;5070685;28;20025;-64
2021/05/14 00:57:41;;;;;;;44.15;30.33;;;9.70;99.90;;;;;;5071181;28;20024;-64
2021/05/14 01:00:08;;;;;;;54.75;36.55;;;9.70;99.90;;;;;;5069549;28;20504;-64
2021/05/14 01:02:33;;;;;;;45.60;32.92;;;9.80;99.90;;;;;;5070520;28;20028;-64
2021/05/14 01:04:59;;;;;;;43.80;30.23;;;9.70;99.90;;;;;;5069600;28;20039;-64
2021/05/14 01:07:25;;;;;;;48.08;32.88;;;9.70;99.90;;;;;;5070878;28;20428;-64
2021/05/14 01:09:51;;;;;;;59.20;39.25;;;9.70;99.90;;;;;;5070657;28;20393;-65
2021/05/14 01:12:17;;;;;;;63.83;41.08;;;9.90;99.90;;;;;;5070781;28;20013;-65
2021/05/14 01:14:43;;;;;;;56.35;38.33;;;9.90;99.90;;;;;;5069522;28;20024;-64
2021/05/14 01:17:09;;;;;;;53.53;35.00;;;10.00;99.90;;;;;;5070844;28;20047;-64
2021/05/14 01:19:35;;;;;;;48.15;33.13;;;9.80;99.90;;;;;;5070700;28;20027;-65
2021/05/14 01:22:03;;;;;;;49.80;34.78;;;9.60;99.90;;;;;;5070616;28;20496;-65
2021/05/14 01:24:29;;;;;;;52.72;36.65;;;9.50;99.90;;;;;;5070828;28;20017;-65
2021/05/14 01:26:55;;;;;;;66.97;41.60;;;9.60;99.90;;;;;;5069247;28;20056;-65
2021/05/14 01:29:21;;;;;;;63.33;39.05;;;9.70;99.90;;;;;;5070447;28;20362;-65
2021/05/14 01:31:46;;;;;;;58.25;37.67;;;9.80;99.90;;;;;;5069127;28;20029;-65
2021/05/14 01:34:12;;;;;;;48.25;34.75;;;9.60;99.90;;;;;;5072661;28;20103;-66
2021/05/14 01:36:39;;;;;;;52.97;36.42;;;9.50;99.90;;;;;;5073266;28;20025;-64
2021/05/14 01:39:10;;;;;;;60.60;38.97;;;9.60;99.90;;;;;;5073070;28;20024;-64
2021/05/14 01:41:36;;;;;;;69.25;43.58;;;9.70;99.90;;;;;;5074445;28;20036;-64
2021/05/14 01:44:03;;;;;;;61.35;40.92;;;9.80;99.90;;;;;;5074238;28;20078;-64
2021/05/14 01:46:29;;;;;;;63.33;40.75;;;9.80;99.90;;;;;;5074616;28;20050;-64
2021/05/14 01:48:55;;;;;;;59.22;39.28;;;9.80;99.90;;;;;;5074231;28;20029;-64
2021/05/14 01:51:22;;;;;;;62.03;39.65;;;9.80;99.90;;;;;;5074291;28;20034;-64
2021/05/14 01:53:48;;;;;;;55.50;35.05;;;9.60;99.90;;;;;;5074557;28;20025;-65
2021/05/14 01:56:14;;;;;;;58.63;39.33;;;9.40;99.90;;;;;;5074337;28;20081;-65
2021/05/14 01:58:39;;;;;;;65.55;42.80;;;9.40;99.90;;;;;;5072997;28;20077;-64
2021/05/14 02:01:05;;;;;;;51.38;35.28;;;9.50;99.90;;;;;;5074403;28;20135;-64
2021/05/14 02:03:31;;;;;;;55.67;38.28;;;9.50;99.90;;;;;;5072486;28;20433;-64
2021/05/14 02:05:56;;;;;;;55.15;37.42;;;9.40;99.90;;;;;;5073806;28;20457;-64
2021/05/14 02:08:22;;;;;;;54.63;36.95;;;9.40;99.90;;;;;;5074045;28;20105;-64
2021/05/14 02:10:48;;;;;;;52.70;36.67;;;9.40;99.90;;;;;;5073995;28;20024;-64
2021/05/14 02:13:14;;;;;;;54.33;37.95;;;9.30;99.90;;;;;;5073984;28;20155;-64
2021/05/14 02:15:40;;;;;;;54.40;38.47;;;9.30;99.90;;;;;;5072363;28;20123;-64
2021/05/14 02:18:06;;;;;;;55.75;37.13;;;9.20;99.90;;;;;;5073940;28;20035;-64
2021/05/14 02:20:32;;;;;;;55.72;36.90;;;9.20;99.90;;;;;;5072517;28;20029;-65
2021/05/14 02:22:58;;;;;;;55.00;37.17;;;9.30;99.90;;;;;;5073917;28;20033;-64
2021/05/14 02:25:24;;;;;;;62.78;41.45;;;9.30;99.90;;;;;;5073688;28;20111;-64
2021/05/14 02:27:49;;;;;;;65.07;40.72;;;9.30;99.90;;;;;;5072738;28;20130;-65
2021/05/14 02:30:15;;;;;;;54.80;37.10;;;9.30;99.90;;;;;;5071351;28;20077;-64
2021/05/14 02:32:41;;;;;;;50.10;35.13;;;9.40;99.90;;;;;;5071972;28;20044;-64
2021/05/14 02:35:07;;;;;;;51.97;35.80;;;9.30;99.90;;;;;;5072116;28;20052;-64
2021/05/14 02:37:33;;;;;;;55.58;37.25;;;9.20;99.90;;;;;;5072242;28;20023;-64
2021/05/14 02:39:58;;;;;;;55.22;37.83;;;9.30;99.90;;;;;;5071136;28;20012;-65
2021/05/14 02:42:24;;;;;;;59.83;39.85;;;9.30;99.90;;;;;;5070788;28;20056;-65
2021/05/14 02:44:50;;;;;;;56.80;37.17;;;9.50;99.90;;;;;;5071905;28;20048;-65
2021/05/14 02:47:15;;;;;;;52.60;36.17;;;9.50;99.90;;;;;;5072242;28;20033;-64
2021/05/14 02:49:41;;;;;;;41.78;30.38;;;9.40;99.90;;;;;;5072166;28;20021;-65
2021/05/14 02:52:07;;;;;;;47.88;33.40;;;9.20;99.90;;;;;;5071942;28;20495;-65
2021/05/14 02:54:33;;;;;;;40.85;29.85;;;9.10;99.90;;;;;;5071934;28;20028;-65
2021/05/14 02:56:59;;;;;;;51.53;35.05;;;8.90;99.90;;;;;;5072009;28;20103;-65
2021/05/14 02:59:25;;;;;;;57.47;37.47;;;9.00;99.90;;;;;;5071820;28;20027;-64
2021/05/14 03:01:51;;;;;;;63.05;40.28;;;9.10;99.90;;;;;;5070466;28;20059;-64
2021/05/14 03:04:17;;;;;;;57.38;39.05;;;9.20;99.90;;;;;;5071357;28;20048;-65
2021/05/14 03:06:43;;;;;;;54.38;36.65;;;9.30;99.90;;;;;;5071833;28;20524;-65
2021/05/14 03:09:08;;;;;;;44.45;32.15;;;9.10;99.90;;;;;;5070522;28;20043;-65
2021/05/14 03:11:34;;;;;;;43.33;31.52;;;9.10;99.90;;;;;;5071715;28;20031;-64
2021/05/14 03:13:59;;;;;;;48.72;33.20;;;8.70;99.90;;;;;;5072059;28;20107;-64
2021/05/14 03:16:25;;;;;;;50.25;34.90;;;8.60;99.90;;;;;;5072096;28;20038;-64
2021/05/14 03:18:51;;;;;;;56.58;38.15;;;8.60;99.90;;;;;;5070203;28;20025;-64
2021/05/14 03:21:17;;;;;;;56.30;38.50;;;8.60;99.90;;;;;;5071565;28;20365;-65
2021/05/14 03:23:42;;;;;;;58.90;39.60;;;8.70;99.90;;;;;;5070424;28;20031;-64
2021/05/14 03:26:08;;;;;;;56.20;39.63;;;8.80;99.90;;;;;;5050971;28;582692;-65
2021/05/14 03:28:33;;;;;;;56.10;38.72;;;8.90;99.90;;;;;;5072473;28;20064;-65
2021/05/14 03:30:59;;;;;;;48.83;34.45;;;9.00;99.90;;;;;;5071129;28;20017;-64
2021/05/14 03:33:25;;;;;;;44.70;32.80;;;9.20;99.90;;;;;;5072056;28;20031;-64
2021/05/14 03:35:52;;;;;;;56.35;36.03;;;9.20;99.90;;;;;;5072164;28;20024;-64
2021/05/14 03:38:22;;;;;;;43.72;31.60;;;9.40;99.90;;;;;;5072459;28;20029;-64
2021/05/14 03:40:48;;;;;;;54.10;35.30;;;9.40;99.90;;;;;;5070941;28;20450;-64
2021/05/14 03:43:14;;;;;;;46.85;33.35;;;9.30;99.90;;;;;;5072044;28;20021;-64
2021/05/14 03:45:39;;;;;;;49.65;35.08;;;9.40;99.90;;;;;;5071974;28;20028;-65
2021/05/14 03:48:18;;;;;;;47.72;34.75;;;9.30;99.90;;;;;;5071938;28;20028;-65
2021/05/14 03:50:46;;;;;;;46.90;33.80;;;9.30;99.90;;;;;;5072011;28;20085;-65
2021/05/14 03:53:12;;;;;;;42.47;31.25;;;9.30;99.90;;;;;;5070726;28;20434;-65
2021/05/14 03:55:38;;;;;;;43.95;32.50;;;9.20;99.90;;;;;;5071337;28;20024;-65
2021/05/14 03:58:03;;;;;;;46.63;32.92;;;9.00;99.90;;;;;;5071943;28;20024;-64
2021/05/14 04:00:29;;;;;;;45.10;32.28;;;9.10;99.90;;;;;;5071836;28;20503;-64
2021/05/14 04:02:56;;;;;;;44.88;32.03;;;9.00;99.90;;;;;;5070188;28;20028;-64
2021/05/14 04:05:22;;;;;;;42.38;30.95;;;9.00;99.90;;;;;;5071809;28;20473;-64
2021/05/14 04:07:50;;;;;;;44.15;31.85;;;9.00;99.90;;;;;;5071832;28;20059;-64
2021/05/14 04:10:32;;;;;;;42.35;30.30;;;9.10;99.90;;;;;;5070506;28;20511;-64
2021/05/14 04:15:42;;;;;;;43.75;29.30;;;9.00;99.90;;;;;;5071451;28;20031;-64
2021/05/14 04:18:07;;;;;;;39.67;28.05;;;9.00;99.90;;;;;;5072087;28;20401;-65
2021/05/14 04:20:33;;;;;;;38.55;27.10;;;8.90;99.90;;;;;;5071896;28;20028;-65
2021/05/14 04:22:58;;;;;;;36.47;24.58;;;8.80;99.90;;;;;;5071687;28;20103;-64
2021/05/14 04:25:24;;;;;;;31.15;22.63;;;8.80;99.90;;;;;;5071265;28;20389;-65
2021/05/14 04:27:50;;;;;;;34.60;22.55;;;8.70;99.90;;;;;;5071570;28;20072;-64
2021/05/14 04:30:16;;;;;;;31.33;21.67;;;8.70;99.90;;;;;;5071414;28;20039;-65
2021/05/14 04:32:42;;;;;;;29.70;21.33;;;8.70;99.90;;;;;;5069716;28;20317;-64
2021/05/14 04:35:07;;;;;;;33.13;22.30;;;8.60;99.90;;;;;;5071475;28;20488;-64
2021/05/14 04:37:33;;;;;;;35.15;23.08;;;8.60;99.90;;;;;;5071569;28;20103;-64
2021/05/14 04:40:03;;;;;;;33.85;22.83;;;8.50;99.90;;;;;;5071150;28;20052;-64
2021/05/14 04:42:28;;;;;;;29.45;20.63;;;8.50;99.90;;;;;;5071298;28;20028;-64
2021/05/14 04:44:54;;;;;;;28.27;19.23;;;8.50;99.90;;;;;;5071259;28;20537;-64
2021/05/14 04:47:19;;;;;;;25.98;18.58;;;8.60;99.90;;;;;;5071452;28;20036;-64
2021/05/14 04:49:45;;;;;;;26.20;18.63;;;8.60;99.90;;;;;;5071095;28;20039;-64
2021/05/14 04:52:19;;;;;;;25.83;19.38;;;8.60;99.90;;;;;;5071113;28;20055;-64
2021/05/14 04:54:46;;;;;;;27.52;19.15;;;8.70;99.90;;;;;;5069851;28;20115;-64
2021/05/14 04:57:13;;;;;;;33.40;20.50;;;8.70;99.90;;;;;;5071186;28;20032;-65
2021/05/14 04:59:40;;;;;;;25.05;19.50;;;8.70;99.90;;;;;;5071428;28;20033;-65
2021/05/14 05:02:07;;;;;;;25.50;18.35;;;8.70;99.90;;;;;;5071023;28;20020;-64
2021/05/14 05:04:35;;;;;;;24.95;17.55;;;8.70;99.90;;;;;;5070731;28;20021;-64
2021/05/14 05:07:00;;;;;;;26.73;17.50;;;8.70;99.90;;;;;;5069664;28;20032;-65
2021/05/14 05:09:26;;;;;;;28.45;18.15;;;8.70;99.90;;;;;;5070972;28;20036;-64
2021/05/14 05:11:51;;;;;;;22.42;15.70;;;8.80;99.90;;;;;;5070768;28;20028;-64
2021/05/14 05:14:17;;;;;;;22.88;16.13;;;8.90;99.90;;;;;;5070699;28;20481;-65
2021/05/14 05:16:43;;;;;;;20.98;15.05;;;9.00;99.90;;;;;;5070785;28;20033;-64
2021/05/14 05:19:08;;;;;;;20.33;14.98;;;8.90;99.90;;;;;;5070970;28;20562;-64
2021/05/14 05:21:34;;;;;;;21.30;14.68;;;8.90;99.90;;;;;;5069663;28;20017;-64
2021/05/14 05:23:59;;;;;;;19.17;14.18;;;9.00;99.90;;;;;;5070648;28;20029;-64
2021/05/14 05:26:26;;;;;;;20.10;14.23;;;9.00;99.90;;;;;;5070572;28;20052;-65
2021/05/14 05:28:52;;;;;;;17.02;11.95;;;9.10;99.90;;;;;;5070735;28;20042;-65
2021/05/14 05:31:18;;;;;;;17.77;11.95;;;9.20;99.90;;;;;;5070694;28;20103;-65
2021/05/14 05:33:43;;;;;;;16.33;12.80;;;9.30;99.90;;;;;;5070514;28;20111;-65
2021/05/14 05:36:09;;;;;;;15.35;10.48;;;9.40;99.90;;;;;;5070581;28;20033;-65
2021/05/14 05:38:34;;;;;;;15.52;11.77;;;9.40;99.90;;;;;;5070613;28;20122;-66
2021/05/14 05:41:00;;;;;;;13.95;9.55;;;9.50;99.90;;;;;;5068986;28;20054;-65
2021/05/14 05:43:26;;;;;;;15.15;10.43;;;9.50;99.90;;;;;;5070504;28;20029;-65
2021/05/14 05:45:51;;;;;;;12.85;10.00;;;9.50;99.90;;;;;;5070459;28;20073;-65
2021/05/14 05:48:17;;;;;;;11.80;8.63;;;9.60;99.90;;;;;;5070618;28;20077;-65
2021/05/14 05:50:43;;;;;;;16.45;11.07;;;9.60;99.90;;;;;;5070486;28;20523;-65
2021/05/14 05:53:09;;;;;;;15.77;10.68;;;9.60;99.90;;;;;;5070360;28;20054;-64
2021/05/14 05:55:35;;;;;;;14.13;10.30;;;9.70;99.90;;;;;;5070274;28;20021;-64
2021/05/14 05:58:05;;;;;;;12.13;10.05;;;9.70;99.90;;;;;;5070608;28;20035;-64
2021/05/14 06:00:31;;;;;;;13.35;8.95;;;9.70;99.90;;;;;;5068966;28;20056;-64
2021/05/14 06:02:57;;;;;;;12.82;9.07;;;9.80;99.90;;;;;;5068730;28;20422;-64
2021/05/14 06:05:22;;;;;;;13.77;9.07;;;9.90;99.90;;;;;;5069183;28;20059;-65
2021/05/14 06:07:48;;;;;;;13.10;8.50;;;9.90;99.90;;;;;;5069150;28;20025;-64
2021/05/14 06:10:14;;;;;;;10.43;8.40;;;10.00;99.90;;;;;;5070315;28;20525;-65
2021/05/14 06:12:40;;;;;;;10.10;8.48;;;10.00;99.90;;;;;;5070314;28;20266;-64
2021/05/14 06:15:09;;;;;;;10.85;7.93;;;10.20;99.90;;;;;;5070492;28;20031;-65
2021/05/14 06:17:40;;;;;;;10.45;7.75;;;10.30;99.90;;;;;;5070220;28;20052;-64
2021/05/14 06:20:08;;;;;;;9.07;7.07;;;10.40;99.90;;;;;;5072444;28;20028;-64
2021/05/14 06:22:33;;;;;;;10.00;6.82;;;10.40;99.90;;;;;;5073804;28;20047;-65
2021/05/14 06:24:59;;;;;;;12.60;6.78;;;10.50;99.90;;;;;;5073619;28;20024;-64
2021/05/14 06:27:25;;;;;;;10.23;6.40;;;10.60;99.90;;;;;;5073657;28;20105;-64
2021/05/14 06:29:50;;;;;;;11.82;7.03;;;10.70;99.90;;;;;;5073692;28;20029;-64
2021/05/14 06:32:16;;;;;;;9.88;6.90;;;10.80;99.90;;;;;;5073598;28;20477;-65
2021/05/14 06:34:43;;;;;;;10.60;5.88;;;10.90;99.90;;;;;;5073367;28;20116;-64
2021/05/14 06:37:09;;;;;;;7.88;6.22;;;11.00;99.90;;;;;;5073472;28;20027;-64
2021/05/14 06:39:34;;;;;;;7.95;6.13;;;11.10;99.90;;;;;;5073498;28;20099;-64
2021/05/14 06:42:00;;;;;;;7.22;5.88;;;11.10;99.90;;;;;;5073323;28;20024;-64
2021/05/14 06:44:26;;;;;;;6.57;5.32;;;11.20;99.90;;;;;;5073495;28;20047;-64
2021/05/14 06:46:51;;;;;;;7.00;5.63;;;11.40;99.90;;;;;;5072195;28;20115;-64
2021/05/14 06:49:18;;;;;;;5.35;4.78;;;11.70;99.90;;;;;;5073605;28;20025;-64
2021/05/14 06:51:43;;;;;;;7.88;5.28;;;12.00;99.90;;;;;;5071885;28;20025;-64
2021/05/14 06:54:09;;;;;;;5.35;4.68;;;12.70;99.90;;;;;;5071871;28;20036;-64
2021/05/14 06:56:35;;;;;;;7.60;5.13;;;13.00;99.90;;;;;;5073119;28;20060;-64
2021/05/14 06:59:02;;;;;;;6.78;4.85;;;13.10;99.90;;;;;;5071696;28;20021;-64
2021/05/14 07:01:27;;;;;;;4.93;4.20;;;13.20;99.90;;;;;;5073037;28;20025;-66
2021/05/14 07:03:53;;;;;;;8.90;4.22;;;14.30;99.90;;;;;;5072805;28;20031;-65
2021/05/14 07:06:19;;;;;;;4.60;3.72;;;15.10;99.90;;;;;;5073045;28;20031;-64
2021/05/14 07:08:47;;;;;;;6.85;3.60;;;16.70;99.90;;;;;;5072766;28;20028;-63
2021/05/14 07:11:12;;;;;;;4.07;3.25;;;18.50;99.90;;;;;;5071285;28;20035;-63
2021/05/14 07:13:38;;;;;;;4.18;3.63;;;19.10;99.90;;;;;;5071337;28;20104;-64
2021/05/14 07:16:04;;;;;;;4.88;3.67;;;17.60;99.90;;;;;;5072663;28;20032;-64
2021/05/14 07:18:31;;;;;;;5.80;3.63;;;17.50;99.90;;;;;;5071325;28;20016;-63
2021/05/14 07:20:57;;;;;;;6.75;3.70;;;18.50;99.90;;;;;;5072666;28;20393;-63
2021/05/14 07:23:22;;;;;;;3.72;3.20;;;18.50;99.90;;;;;;5072506;28;20035;-63
2021/05/14 07:25:48;;;;;;;3.97;3.38;;;18.90;99.90;;;;;;5072363;28;20029;-63
2021/05/14 07:28:14;;;;;;;3.42;3.10;;;20.00;99.90;;;;;;5072451;28;20041;-63
2021/05/14 07:30:39;;;;;;;4.47;3.20;;;20.50;98.40;;;;;;5069921;28;20028;-63
2021/05/14 07:33:05;;;;;;;4.38;3.10;;;19.40;99.90;;;;;;5071244;28;20025;-63
2021/05/14 07:35:31;;;;;;;4.00;3.10;;;19.60;99.90;;;;;;5072396;28;20071;-63
2021/05/14 07:37:56;;;;;;;3.67;3.30;;;19.60;99.90;;;;;;5072314;28;20032;-63
2021/05/14 07:40:22;;;;;;;6.18;3.15;;;18.90;99.90;;;;;;5072571;28;20021;-63
2021/05/14 07:42:48;;;;;;;4.72;3.20;;;19.60;99.90;;;;;;5072127;28;20059;-63
2021/05/14 07:45:13;;;;;;;5.22;2.83;;;20.60;98.90;;;;;;5072055;28;20009;-63
2021/05/14 07:47:39;;;;;;;3.58;3.28;;;20.00;99.20;;;;;;5072101;28;20381;-63
2021/05/14 07:50:06;;;;;;;5.50;3.75;;;18.60;99.90;;;;;;5071872;28;20052;-64
2021/05/14 07:52:31;;;;;;;3.92;3.53;;;19.00;99.90;;;;;;5071695;28;20021;-63
2021/05/14 07:54:57;;;;;;;3.75;3.45;;;19.00;99.90;;;;;;5070550;28;20496;-63
2021/05/14 07:57:22;;;;;;;4.82;3.50;;;19.20;99.90;;;;;;5071665;28;20075;-63
2021/05/14 07:59:48;;;;;;;4.82;3.15;;;19.70;99.90;;;;;;5071813;28;20025;-63
2021/05/14 08:02:14;;;;;;;3.70;3.40;;;21.40;98.40;;;;;;5070293;28;20035;-63
2021/05/14 08:04:40;;;;;;;6.00;3.70;;;20.20;98.70;;;;;;5071432;28;20205;-63
2021/05/14 08:07:05;;;;;;;4.38;3.95;;;19.00;99.90;;;;;;5070308;28;20123;-63
2021/05/14 08:09:31;;;;;;;4.40;4.00;;;19.30;99.90;;;;;;5071628;28;20033;-63
2021/05/14 08:11:57;;;;;;;5.60;4.43;;;18.60;99.90;;;;;;5071335;28;20556;-63
2021/05/14 08:14:23;;;;;;;4.72;4.00;;;17.60;99.90;;;;;;5071623;28;20366;-65
2021/05/14 08:16:48;;;;;;;5.93;4.47;;;16.90;99.90;;;;;;5071386;28;20067;-65
2021/05/14 08:19:14;;;;;;;6.10;4.20;;;16.70;99.90;;;;;;5070087;28;20056;-65
2021/05/14 08:21:44;;;;;;;5.97;3.80;;;16.60;99.90;;;;;;5071376;28;20024;-65
2021/05/14 08:24:10;;;;;;;4.93;3.60;;;17.80;99.90;;;;;;5070011;28;20031;-64
2021/05/14 08:26:38;;;;;;;4.70;4.10;;;18.50;99.90;;;;;;5071091;28;20086;-64
2021/05/14 08:29:04;;;;;;;4.53;3.83;;;19.50;99.90;;;;;;5071121;28;20074;-63
2021/05/14 08:31:32;;;;;;;4.80;3.72;;;20.40;99.90;;;;;;5071033;28;20451;-63
2021/05/14 08:33:58;;;;;;;3.95;3.65;;;20.80;97.90;;;;;;5070871;28;20091;-63
2021/05/14 08:36:23;;;;;;;4.35;3.65;;;20.60;98.80;;;;;;5071266;28;20115;-63
2021/05/14 08:38:49;;;;;;;6.68;3.42;;;21.40;95.90;;;;;;5069699;28;20048;-63
2021/05/14 08:41:15;;;;;;;5.05;3.67;;;21.90;95.50;;;;;;5069547;28;20556;-63
2021/05/14 08:43:40;;;;;;;5.47;3.67;;;21.90;91.50;;;;;;5070503;28;20024;-63
2021/05/14 08:46:06;;;;;;;6.28;3.30;;;21.10;94.80;;;;;;5070880;28;20089;-64
2021/05/14 08:48:38;;;;;;;4.85;3.50;;;22.10;91.60;;;;;;5071003;28;20111;-63
2021/05/14 08:51:09;;;;;;;6.35;3.78;;;22.00;91.60;;;;;;5069540;28;20062;-63
2021/05/14 08:53:35;;;;;;;5.13;3.40;;;23.00;88.50;;;;;;5070854;28;20060;-63
2021/05/14 08:56:01;;;;;;;4.20;3.35;;;23.20;83.60;;;;;;5070767;28;20051;-63
2021/05/14 08:58:28;;;;;;;3.85;3.25;;;22.90;78.30;;;;;;5069694;28;20048;-63
2021/05/14 09:00:54;;;;;;;3.92;3.50;;;22.70;81.90;;;;;;5070797;28;20016;-63
2021/05/14 09:03:20;;;;;;;4.85;3.58;;;23.80;74.90;;;;;;5070444;28;20017;-63
2021/05/14 09:05:48;;;;;;;4.65;3.60;;;23.20;75.20;;;;;;5070658;28;20024;-63
2021/05/14 09:08:31;;;;;;;5.13;3.85;;;21.60;82.50;;;;;;5072734;28;20024;-65
2021/05/14 09:10:58;;;;;;;6.38;4.03;;;19.80;95.80;;;;;;5069348;28;20039;-65
2021/05/14 09:13:37;;;;;;;6.00;4.68;;;19.30;99.90;;;;;;5070915;28;20477;-65
2021/05/14 09:16:03;;;;;;;5.28;4.07;;;18.60;99.90;;;;;;5070638;28;20036;-65
2021/05/14 09:18:29;;;;;;;4.57;3.42;;;17.90;99.90;;;;;;5069640;28;20021;-65
2021/05/14 09:20:59;;;;;;;5.53;3.22;;;17.70;99.90;;;;;;5069531;28;20162;-65
2021/05/14 09:23:29;;;;;;;4.55;3.72;;;17.80;99.90;;;;;;5070833;28;20096;-65
2021/05/14 09:26:15;;;;;;;5.25;3.10;;;17.40;99.90;;;;;;5071197;28;20380;-65
2021/05/14 09:28:41;;;;;;;4.45;3.33;;;17.20;99.90;;;;;;5070594;28;20539;-65
2021/05/14 09:31:16;;;;;;;3.50;3.05;;;17.70;99.90;;;;;;5070485;28;20033;-63
2021/05/14 09:33:57;;;;;;;4.95;2.35;;;18.40;99.90;;;;;;5068856;28;20023;-63
2021/05/14 09:36:28;;;;;;;1.52;1.40;;;18.40;99.90;;;;;;5069232;28;20052;-65
2021/05/14 09:39:02;;;;;;;3.00;1.40;;;17.70;99.60;;;;;;5070575;28;20055;-65
2021/05/14 09:41:38;;;;;;;3.78;2.00;;;17.10;99.90;;;;;;5069149;28;20077;-65
2021/05/14 09:44:14;;;;;;;3.90;1.60;;;17.50;99.90;;;;;;5070317;28;20512;-63
2021/05/14 09:46:41;;;;;;;3.75;2.40;;;17.60;99.90;;;;;;5069241;28;20020;-65
2021/05/14 09:49:16;;;;;;;3.63;2.33;;;17.00;99.90;;;;;;5070081;28;20488;-64
2021/05/14 09:52:03;;;;;;;4.25;2.47;;;16.30;99.90;;;;;;5069085;28;20032;-64
2021/05/14 09:54:31;;;;;;;3.88;2.40;;;16.20;99.90;;;;;;5071534;28;20614;-64
2021/05/14 09:59:47;;;;;;;4.57;3.28;;;16.00;99.90;;;;;;5074091;28;20377;-64
2021/05/14 10:02:22;;;;;;;6.75;3.60;;;16.00;99.90;;;;;;5074261;28;20025;-64
2021/05/14 10:04:49;;;;;;;5.32;3.40;;;16.30;99.90;;;;;;5073752;28;20370;-64
2021/05/14 10:07:15;;;;;;;3.35;2.42;;;16.40;99.90;;;;;;5074250;28;20035;-64
2021/05/14 10:09:42;;;;;;;7.32;2.20;;;17.10;99.90;;;;;;5073947;28;20599;-64
2021/05/14 10:12:09;;;;;;;2.60;2.40;;;18.80;99.90;;;;;;5072489;28;20119;-63
2021/05/14 10:14:36;;;;;;;3.10;2.70;;;20.20;99.90;;;;;;5073810;28;20549;-63
2021/05/14 10:17:02;;;;;;;4.28;2.80;;;21.60;95.90;;;;;;5073864;28;20024;-63
2021/05/14 10:19:28;;;;;;;5.30;2.90;;;22.10;92.60;;;;;;5072376;28;20306;-63
2021/05/14 10:21:55;;;;;;;4.68;2.80;;;21.70;92.10;;;;;;5073549;28;20046;-63
2021/05/14 10:24:44;;;;;;;3.95;2.70;;;20.70;94.50;;;;;;5073500;28;20031;-63
2021/05/14 10:27:27;;;;;;;4.72;2.80;;;20.50;96.80;;;;;;5073513;28;20064;-63
2021/05/14 10:29:57;;;;;;;5.78;3.00;;;20.10;97.40;;;;;;5073644;28;20074;-63
2021/05/14 10:32:44;;;;;;;3.92;3.10;;;20.10;96.90;;;;;;5073659;28;20028;-63
2021/05/14 10:35:17;;;;;;;4.22;3.17;;;19.80;98.00;;;;;;5073460;28;20032;-63
2021/05/14 10:37:46;;;;;;;6.50;3.15;;;19.50;98.90;;;;;;5072194;28;20036;-63
2021/05/14 10:40:30;;;;;;;4.03;3.05;;;20.00;99.00;;;;;;5073337;28;20430;-63
2021/05/14 10:42:57;;;;;;;6.07;4.72;;;21.30;94.90;;;;;;5073620;28;20479;-63
2021/05/14 10:45:43;;;;;;;7.75;3.83;;;21.00;93.10;;;;;;5073524;28;20051;-63
2021/05/14 10:48:22;;;;;;;5.88;3.80;;;20.10;96.10;;;;;;5073367;28;20104;-63
2021/05/14 10:50:53;;;;;;;6.72;3.83;;;19.20;96.90;;;;;;5071843;28;20128;-63
2021/05/14 10:53:34;;;;;;;8.32;3.92;;;18.80;98.30;;;;;;5073471;28;20024;-63
2021/05/14 10:56:09;;;;;;;4.97;3.53;;;18.70;99.10;;;;;;5073034;28;20437;-63
2021/05/14 10:58:38;;;;;;;5.68;3.78;;;18.50;99.40;;;;;;5072864;28;20024;-63
2021/05/14 11:01:05;;;;;;;7.97;4.25;;;18.40;99.90;;;;;;5072973;28;20033;-63
2021/05/14 11:03:34;;;;;;;7.05;4.78;;;17.80;99.90;;;;;;5071393;28;20028;-63
2021/05/14 11:06:11;;;;;;;6.97;5.57;;;17.70;99.90;;;;;;5072536;28;20020;-63
2021/05/14 11:08:37;;;;;;;6.30;5.70;;;17.30;99.90;;;;;;5072921;28;20104;-64
2021/05/14 11:11:11;;;;;;;7.90;6.07;;;17.20;99.90;;;;;;5072890;28;20203;-64
2021/05/14 11:13:51;;;;;;;7.80;6.20;;;17.30;99.90;;;;;;5073144;28;20054;-64
2021/05/14 11:16:36;;;;;;;8.93;5.75;;;17.80;99.90;;;;;;5072838;28;20035;-64
2021/05/14 11:19:15;;;;;;;6.38;4.63;;;18.90;99.90;;;;;;5072780;28;20020;-64
2021/05/14 11:22:00;;;;;;;5.47;4.40;;;19.90;96.80;;;;;;5072710;28;20419;-66
2021/05/14 11:24:33;;;;;;;4.90;4.40;;;19.70;95.20;;;;;;5072562;28;20488;-65
2021/05/14 11:27:08;;;;;;;4.40;4.00;;;19.10;97.40;;;;;;5070968;28;20521;-65
2021/05/14 11:29:37;;;;;;;5.80;4.38;;;18.90;98.00;;;;;;5072811;28;20107;-64
2021/05/14 11:32:13;;;;;;;4.60;4.05;;;19.20;97.90;;;;;;5072281;28;20033;-63
2021/05/14 11:34:54;;;;;;;3.95;3.55;;;19.60;97.60;;;;;;5072030;28;20039;-63
2021/05/14 11:37:30;;;;;;;5.63;3.95;;;19.60;97.20;;;;;;5072234;28;20542;-63
2021/05/14 11:39:57;;;;;;;5.15;3.70;;;19.70;96.90;;;;;;5072188;28;20020;-63
2021/05/14 11:42:24;;;;;;;7.38;3.55;;;19.80;96.50;;;;;;5072039;28;20108;-63
2021/05/14 11:44:57;;;;;;;3.97;3.53;;;19.90;97.10;;;;;;5070778;28;20048;-63
2021/05/14 11:47:23;;;;;;;;;;;20.50;94.90;;;;;;5071319;28;20405;-63
2021/05/14 11:49:48;;;;;;;6.28;3.85;;;20.10;93.40;;;;;;5072012;28;20182;-63
2021/05/14 11:52:14;;;;;;;4.75;3.97;;;19.30;95.70;;;;;;5071828;28;20039;-64
2021/05/14 11:54:39;;;;;;;4.47;3.40;;;18.70;97.60;;;;;;5072177;28;20033;-64
2021/05/14 11:57:05;;;;;;;4.18;3.78;;;18.60;96.50;;;;;;5071861;28;20052;-64
2021/05/14 11:59:31;;;;;;;3.92;3.53;;;18.70;96.70;;;;;;5071775;28;20058;-64
2021/05/14 12:01:56;;;;;;;4.28;3.88;;;18.60;96.40;;;;;;5070412;28;20028;-64
2021/05/14 12:04:22;;;;;;;4.68;4.28;;;18.70;96.50;;;;;;5071337;28;20491;-62
2021/05/14 12:06:49;;;;;;;6.35;4.18;;;19.00;95.20;;;;;;5071771;28;20020;-62
2021/05/14 12:09:14;;;;;;;4.95;4.45;;;19.10;94.90;;;;;;5071657;28;20020;-62
2021/05/14 12:11:43;;;;;;;4.28;3.75;;;19.50;95.50;;;;;;5071592;28;20037;-63
2021/05/14 12:14:09;;;;;;;5.05;3.97;;;20.40;92.40;;;;;;5071478;28;20017;-63
2021/05/14 12:16:38;;;;;;;6.15;3.95;;;21.70;88.50;;;;;;5070951;28;20028;-63
2021/05/14 12:19:04;;;;;;;7.75;3.80;;;22.40;74.70;;;;;;5071143;28;20024;-63
2021/05/14 12:21:36;;;;;;;4.40;4.00;;;22.30;71.80;;;;;;5069929;28;20039;-63
2021/05/14 12:24:17;;;;;;;4.93;3.92;;;21.40;73.80;;;;;;5069836;28;20025;-63
2021/05/14 12:26:42;;;;;;;4.55;4.22;;;20.50;80.40;;;;;;5071598;28;20443;-63
2021/05/14 12:29:26;;;;;;;6.22;4.47;;;20.00;84.80;;;;;;5071063;28;20055;-63
2021/05/14 12:32:00;;;;;;;4.40;4.00;;;19.60;89.40;;;;;;5071075;28;20384;-62
2021/05/14 12:34:28;;;;;;;4.97;3.72;;;19.80;88.70;;;;;;5069389;28;20115;-63
2021/05/14 12:36:58;;;;;;;4.13;3.58;;;19.70;87.40;;;;;;5071086;28;20115;-64
2021/05/14 12:39:24;;;;;;;5.38;3.63;;;19.30;87.40;;;;;;5071000;28;20024;-63
2021/05/14 12:41:53;;;;;;;5.35;3.97;;;19.50;91.20;;;;;;5069498;28;20025;-63
2021/05/14 12:44:24;;;;;;;4.25;3.30;;;20.00;88.00;;;;;;5070951;28;20025;-63
2021/05/14 12:46:59;;;;;;;4.95;3.60;;;21.00;83.80;;;;;;5071141;28;20032;-63
2021/05/14 12:49:26;;;;;;;3.97;3.58;;;23.30;72.50;;;;;;5070871;28;20082;-63
2021/05/14 12:52:09;;;;;;;6.03;3.47;;;24.20;62.30;;;;;;5070907;28;20024;-63